Time;durP1;ratioP1;P1;durP2;ratioP2;P2;SDS_P1;SDS_P2;PMS_P1;PMS_P2;Temp;Humidity;BMP_temperature;BMP_pressure;BME280_temperature;BME280_humidity;BME280_pressure;Samples;Min_cycle;Max_cycle;Signal;HPM_P1;HPM_P2
2021/12/21 00:00:29;;;;;;;10.53;4.53;;;;;;;-1.23;77.68;99663.98;1826554;78;21023;-42
2021/12/21 00:02:55;;;;;;;16.57;6.10;;;;;;;-1.35;77.95;99672.58;1826375;78;20975;-41
2021/12/21 00:05:26;;;;;;;10.10;5.28;;;;;;;-1.50;78.73;99670.02;1826511;78;21465;-41
2021/12/21 00:07:53;;;;;;;11.38;4.78;;;;;;;-1.41;78.66;99676.46;1826070;78;21421;-41
2021/12/21 00:10:22;;;;;;;12.78;5.55;;;;;;;-1.46;79.02;99670.44;1826382;78;20981;-42
2021/12/21 00:13:35;;;;;;;11.15;4.90;;;;;;;-1.46;78.72;99665.28;1826430;78;21030;-42
2021/12/21 00:15:33;;;;;;;8.18;4.50;;;;;;;-1.43;79.16;99670.45;1816894;78;21470;-41
2021/12/21 00:17:55;;;;;;;11.18;4.92;;;;;;;-1.45;79.28;99670.88;1822867;78;20979;-41
2021/12/21 00:20:45;;;;;;;9.63;4.25;;;;;;;-1.45;78.95;99672.17;1825075;78;20965;-42
2021/12/21 00:25:23;;;;;;;13.75;5.55;;;;;;;-1.46;79.27;99668.72;1792123;78;21004;-41
2021/12/21 00:27:52;;;;;;;11.05;4.90;;;;;;;-1.49;79.45;99670.43;1826522;78;20957;-41
2021/12/21 00:30:18;;;;;;;10.72;5.83;;;;;;;-1.57;79.65;99664.84;1826428;78;21365;-42
2021/12/21 00:32:44;;;;;;;16.25;5.08;;;;;;;-1.57;79.57;99670.00;1826446;78;20988;-41
2021/12/21 00:35:11;;;;;;;11.12;5.20;;;;;;;-1.54;79.63;99671.74;1826422;78;20949;-41
2021/12/21 00:37:41;;;;;;;10.30;4.97;;;;;;;-1.64;80.02;99672.15;1826568;78;20993;-41
2021/12/21 00:40:09;;;;;;;12.28;5.30;;;;;;;-1.60;79.95;99675.59;1826468;78;20997;-41
2021/12/21 00:42:35;;;;;;;13.90;6.15;;;;;;;-1.55;80.11;99682.50;1826340;78;20972;-41
2021/12/21 00:45:01;;;;;;;12.25;6.10;;;;;;;-1.53;79.92;99684.20;1826406;78;20965;-40
2021/12/21 00:47:27;;;;;;;11.43;4.85;;;;;;;-1.57;79.77;99684.19;1826404;78;21001;-40
2021/12/21 00:49:59;;;;;;;10.15;4.97;;;;;;;-1.62;79.47;99688.52;1826497;78;21478;-41
2021/12/21 00:52:20;;;;;;;;;;;;;;;-1.53;79.14;99687.63;1828002;78;21008;-41
2021/12/21 00:54:46;;;;;;;9.53;5.05;;;;;;;-1.67;79.49;99686.35;1826418;78;20097;-41
2021/12/21 00:57:11;;;;;;;10.90;4.42;;;;;;;-1.72;80.03;99691.93;1826369;78;20972;-40
2021/12/21 00:59:37;;;;;;;13.35;4.85;;;;;;;-1.82;79.93;99688.90;1826431;78;20972;-41
2021/12/21 01:02:03;;;;;;;12.80;4.78;;;;;;;-1.76;79.73;99687.64;1826350;78;21007;-41
2021/12/21 01:04:35;;;;;;;12.58;5.42;;;;;;;-1.80;79.86;99688.47;1826405;78;21027;-41
2021/12/21 01:07:02;;;;;;;9.03;4.30;;;;;;;-1.75;79.77;99694.50;1824948;78;20952;-41
2021/12/21 01:12:14;;;;;;;13.30;5.12;;;;;;;-2.06;80.51;99690.58;1826540;78;21032;-41
2021/12/21 01:17:30;;;;;;;11.90;4.87;;;;;;;-1.95;80.32;99699.22;1826543;78;20961;-40
2021/12/21 01:20:03;;;;;;;14.03;5.65;;;;;;;-2.05;80.55;99695.33;1824614;78;20947;-41
2021/12/21 01:22:40;;;;;;;12.93;5.40;;;;;;;-2.03;80.64;99705.20;1822826;78;20992;-41
2021/12/21 01:27:51;;;;;;;9.53;4.37;;;;;;;-1.96;80.29;99709.52;1826615;78;21442;-41
2021/12/21 01:30:12;;;;;;;7.95;4.30;;;;;;;-1.99;80.43;99705.20;1822632;78;20976;-41
2021/12/21 01:35:40;;;;;;;8.40;3.98;;;;;;;-1.94;80.44;99707.36;1826438;78;20960;-41
2021/12/21 01:37:56;;;;;;;8.53;4.40;;;;;;;-1.96;80.70;99710.37;1818892;78;20941;-41
2021/12/21 01:50:36;;;;;;;7.85;3.98;;;;;;;-2.02;81.09;99709.08;1826311;78;21041;-41
2021/12/21 01:53:03;;;;;;;10.68;4.00;;;;;;;-1.99;80.54;99698.75;1826369;78;21477;-41
2021/12/21 01:55:30;;;;;;;8.23;4.00;;;;;;;-2.01;80.71;99706.06;1826422;78;21050;-41
2021/12/21 01:57:56;;;;;;;8.98;4.10;;;;;;;-2.02;80.73;99694.91;1826508;78;21039;-41
2021/12/21 02:00:22;;;;;;;7.62;3.85;;;;;;;-2.06;80.93;99701.32;1826376;78;20980;-42
2021/12/21 02:02:48;;;;;;;7.33;3.67;;;;;;;-2.03;81.11;99698.33;1826439;78;21023;-41
2021/12/21 02:05:14;;;;;;;9.10;3.85;;;;;;;-1.99;80.70;99705.20;1826427;78;21019;-42
2021/12/21 02:07:40;;;;;;;9.00;4.50;;;;;;;-2.03;80.72;99705.20;1826377;78;21420;-41
2021/12/21 02:10:07;;;;;;;8.63;4.15;;;;;;;-2.12;80.54;99701.73;1826317;78;20957;-41
2021/12/21 02:12:33;;;;;;;8.05;3.72;;;;;;;-2.07;80.46;99700.47;1826585;78;20984;-41
2021/12/21 02:15:00;;;;;;;7.80;3.58;;;;;;;-2.04;80.04;99703.47;1826641;78;21478;-41
2021/12/21 02:20:17;;;;;;;6.67;3.37;;;;;;;-2.07;79.95;99701.77;1826400;78;20957;-42
2021/12/21 02:22:37;;;;;;;5.50;2.65;;;;;;;-2.08;79.77;99708.19;1823210;78;20976;-41
2021/12/21 02:25:30;;;;;;;6.62;3.50;;;;;;;-2.10;79.41;99705.61;1825832;78;20972;-41
2021/12/21 02:27:42;;;;;;;10.38;3.25;;;;;;;-2.07;79.16;99715.93;1821781;78;20925;-41
2021/12/21 02:30:00;;;;;;;6.55;3.55;;;;;;;-2.09;79.14;99709.03;1823942;78;20968;-41
2021/12/21 02:32:26;;;;;;;7.85;3.50;;;;;;;-2.05;79.18;99716.80;1826481;78;20981;-41
2021/12/21 02:34:51;;;;;;;8.13;3.40;;;;;;;-2.00;79.05;99719.36;1826346;78;21075;-41
2021/12/21 02:37:17;;;;;;;12.90;4.10;;;;;;;-2.07;78.73;99710.78;1826376;78;21047;-42
2021/12/21 02:39:43;;;;;;;7.05;3.45;;;;;;;-2.17;79.03;99711.59;1826344;78;20992;-41
2021/12/21 02:42:09;;;;;;;9.63;3.40;;;;;;;-2.23;79.00;99711.16;1762028;77;21105;-40
2021/12/21 02:44:38;;;;;;;6.10;2.98;;;;;;;-2.22;78.87;99719.73;1731068;83;21097;-39
2021/12/21 02:47:04;;;;;;;6.60;3.35;;;;;;;-2.23;78.81;99711.16;1762803;81;21073;-40
2021/12/21 02:49:30;;;;;;;6.17;3.33;;;;;;;-2.19;78.96;99716.74;1764588;81;21491;-40
2021/12/21 02:51:56;;;;;;;5.65;3.20;;;;;;;-2.24;79.07;99717.15;1764369;81;20978;-39
2021/12/21 02:54:22;;;;;;;6.87;3.27;;;;;;;-2.37;79.31;99716.24;1764377;81;21002;-40
2021/12/21 02:56:48;;;;;;;8.10;3.17;;;;;;;-2.27;79.15;99716.27;1764012;81;21006;-41
2021/12/21 02:59:14;;;;;;;5.87;3.15;;;;;;;-2.26;79.40;99717.58;1764306;81;21349;-40
2021/12/21 03:01:40;;;;;;;8.88;3.67;;;;;;;-2.20;79.49;99717.61;1764283;81;21061;-39
2021/12/21 03:04:08;;;;;;;11.03;4.33;;;;;;;-2.21;79.56;99719.75;1764246;81;20966;-40
2021/12/21 03:12:08;;;;;;;8.25;4.33;;;;;;;-2.05;79.80;99725.81;1764294;81;21435;-40
2021/12/21 03:14:26;;;;;;;10.15;4.50;;;;;;;-1.99;79.58;99716.80;1764209;81;20959;-41
2021/12/21 03:16:53;;;;;;;11.38;4.05;;;;;;;-2.01;79.12;99722.81;1764397;81;21515;-40
2021/12/21 03:19:20;;;;;;;7.47;3.42;;;;;;;-2.01;79.48;99722.38;1764420;81;20994;-40
2021/12/21 03:21:46;;;;;;;6.37;3.60;;;;;;;-1.89;79.48;99724.55;1764229;81;20995;-41
2021/12/21 03:24:12;;;;;;;8.60;3.70;;;;;;;-1.97;79.30;99730.98;1764271;81;21539;-40
2021/12/21 03:26:38;;;;;;;7.95;3.62;;;;;;;-2.01;79.51;99729.27;1764352;81;21595;-41
2021/12/21 03:29:05;;;;;;;9.20;3.20;;;;;;;-2.07;79.73;99721.09;1764277;81;21038;-41
2021/12/21 03:31:33;;;;;;;12.10;3.95;;;;;;;-1.98;79.75;99719.81;1764430;81;20991;-40
2021/12/21 03:33:59;;;;;;;5.87;3.42;;;;;;;-2.03;79.86;99724.09;1764410;81;21455;-40
2021/12/21 03:36:25;;;;;;;6.97;3.33;;;;;;;-1.97;79.78;99725.39;1764196;81;21006;-40
2021/12/21 03:38:59;;;;;;;8.78;3.33;;;;;;;-1.88;79.70;99725.84;1764458;81;21456;-40
2021/12/21 03:41:20;;;;;;;6.30;3.30;;;;;;;-1.95;79.40;99732.72;1763389;81;20986;-40
2021/12/21 03:43:47;;;;;;;8.75;3.20;;;;;;;-1.96;79.17;99728.41;1734191;83;20981;-40
2021/12/21 03:46:15;;;;;;;6.23;3.20;;;;;;;-1.92;79.19;99728.43;1703713;84;20976;-41
2021/12/21 03:48:45;;;;;;;6.62;3.05;;;;;;;-1.91;79.00;99728.84;1734244;83;21155;-40
2021/12/21 03:51:17;;;;;;;4.90;3.15;;;;;;;-1.89;79.03;99729.30;1703392;84;21028;-40
2021/12/21 03:53:44;;;;;;;3.83;2.45;;;;;;;-1.95;78.82;99729.27;1734348;83;20965;-41
2021/12/21 03:58:47;;;;;;;6.45;2.83;;;;;;;-2.05;77.97;99727.54;1699672;83;21461;-40
2021/12/21 04:01:13;;;;;;;5.62;3.37;;;;;;;-1.99;77.94;99730.97;1703398;84;20973;-40
2021/12/21 04:03:40;;;;;;;7.97;3.00;;;;;;;-2.02;77.84;99734.85;1734326;83;20953;-40
2021/12/21 04:06:06;;;;;;;4.65;2.50;;;;;;;-1.93;77.92;99739.14;1732601;83;21042;-40
2021/12/21 04:08:34;;;;;;;7.45;3.00;;;;;;;-1.82;77.77;99745.62;1752064;82;21030;-40
2021/12/21 04:11:01;;;;;;;5.90;3.08;;;;;;;-1.94;77.65;99747.31;1732566;83;21548;-40
2021/12/21 04:13:27;;;;;;;;;;;;;;;-2.00;77.55;99752.87;1754733;82;20968;-40
2021/12/21 04:15:54;;;;;;;3.47;2.80;;;;;;;-1.94;77.45;99755.48;1703441;84;20099;-41
2021/12/21 04:18:23;;;;;;;7.25;3.20;;;;;;;-1.96;77.21;99756.77;1703618;84;21091;-41
2021/12/21 04:20:50;;;;;;;11.38;3.52;;;;;;;-1.95;77.00;99751.17;1703396;84;21051;-41
2021/12/21 04:23:16;;;;;;;;;;;;;;;-2.03;77.24;99754.17;1736747;83;21031;-41
2021/12/21 04:25:43;;;;;;;8.50;2.80;;;;;;;-2.07;77.13;99755.88;1703458;84;20107;-40
2021/12/21 04:28:09;;;;;;;6.08;3.20;;;;;;;-2.07;77.15;99763.61;1703421;84;21035;-40
2021/12/21 04:30:35;;;;;;;8.10;3.25;;;;;;;-2.27;77.56;99762.24;1703376;84;21457;-41
2021/12/21 04:33:01;;;;;;;8.70;3.52;;;;;;;-2.21;77.70;99753.67;1703485;84;21445;-40
2021/12/21 04:35:27;;;;;;;6.67;3.12;;;;;;;-2.28;77.49;99762.23;1703504;84;21028;-41
2021/12/21 04:37:58;;;;;;;7.10;3.33;;;;;;;-2.22;77.56;99763.53;1703410;84;20968;-41
2021/12/21 04:40:36;;;;;;;5.72;2.70;;;;;;;-2.37;77.40;99763.05;1702965;84;20941;-41
2021/12/21 04:42:51;;;;;;;5.97;2.67;;;;;;;-2.22;77.79;99765.70;1717029;83;20995;-41
2021/12/21 04:45:18;;;;;;;7.17;3.20;;;;;;;-2.30;77.34;99763.51;1732162;82;21507;-41
2021/12/21 04:47:44;;;;;;;7.55;2.95;;;;;;;-2.22;77.52;99771.27;1732166;82;21037;-42
2021/12/21 04:50:11;;;;;;;7.42;2.60;;;;;;;-2.21;77.64;99778.16;1732265;83;20966;-42
2021/12/21 04:52:37;;;;;;;4.17;2.70;;;;;;;-2.14;77.32;99772.17;1732227;82;20967;-42
2021/12/21 04:55:04;;;;;;;6.15;2.92;;;;;;;-2.20;77.36;99774.30;1732116;83;21522;-41
2021/12/21 04:57:30;;;;;;;5.40;2.70;;;;;;;-2.41;77.27;99773.76;1732025;82;20971;-41
2021/12/21 04:59:56;;;;;;;8.90;3.00;;;;;;;-2.35;77.70;99777.67;1731992;82;21001;-41
2021/12/21 05:02:23;;;;;;;9.00;3.15;;;;;;;-2.35;77.70;99777.67;1731995;82;21030;-41
2021/12/21 05:04:49;;;;;;;6.05;3.40;;;;;;;-2.31;77.50;99784.95;1732156;82;21005;-42
2021/12/21 05:07:22;;;;;;;5.55;3.17;;;;;;;-2.32;77.24;99784.11;1732082;83;21522;-42
2021/12/21 05:09:45;;;;;;;5.55;3.40;;;;;;;-2.33;77.10;99784.09;1730947;83;20971;-41
2021/12/21 05:12:13;;;;;;;10.13;3.47;;;;;;;-2.40;77.23;99790.95;1731880;82;21825;-41
2021/12/21 05:14:39;;;;;;;8.50;2.80;;;;;;;-2.54;77.19;99788.72;1732004;82;21022;-41
2021/12/21 05:17:05;;;;;;;8.28;3.05;;;;;;;-2.40;77.26;99793.52;1732377;82;20988;-41
2021/12/21 05:19:32;;;;;;;6.15;2.80;;;;;;;-2.44;77.12;99799.48;1732025;83;20998;-41
2021/12/21 05:21:58;;;;;;;9.05;3.25;;;;;;;-2.49;77.24;99791.30;1732243;82;20971;-42
2021/12/21 05:24:24;;;;;;;5.22;2.67;;;;;;;-2.46;77.45;99801.63;1732047;83;21503;-42
2021/12/21 05:26:50;;;;;;;8.68;3.65;;;;;;;-2.44;77.00;99799.48;1732037;82;21022;-41
2021/12/21 05:29:15;;;;;;;5.33;2.87;;;;;;;-2.62;77.10;99804.53;1732021;82;21042;-42
2021/12/21 05:31:41;;;;;;;6.10;3.00;;;;;;;-2.66;77.60;99805.38;1732002;82;21002;-42
2021/12/21 05:34:07;;;;;;;8.73;3.37;;;;;;;-2.58;77.46;99804.58;1732055;82;21038;-41
2021/12/21 05:36:33;;;;;;;7.97;3.27;;;;;;;-2.61;77.29;99799.41;1731984;82;21046;-41
2021/12/21 05:39:03;;;;;;;7.62;3.45;;;;;;;-2.61;77.30;99808.84;1732006;82;21037;-40
2021/12/21 05:41:49;;;;;;;;;;;;;;;-2.71;77.69;99807.50;1733976;83;21002;-41
2021/12/21 05:43:57;;;;;;;6.78;3.67;;;;;;;-2.86;78.10;99803.52;1717865;83;20137;-41
2021/12/21 05:46:23;;;;;;;8.00;3.55;;;;;;;-2.73;77.96;99802.77;1732639;83;21585;-40
2021/12/21 05:48:51;;;;;;;8.18;3.87;;;;;;;-2.67;77.65;99810.96;1732634;83;21487;-41
2021/12/21 05:51:17;;;;;;;10.95;3.22;;;;;;;-2.65;77.61;99810.98;1733342;83;21023;-41
2021/12/21 05:53:42;;;;;;;12.82;3.90;;;;;;;-2.58;77.49;99806.30;1732768;83;20997;-41
2021/12/21 05:56:08;;;;;;;7.45;4.03;;;;;;;-2.57;77.21;99811.43;1733250;83;21000;-41
2021/12/21 05:58:34;;;;;;;6.47;4.12;;;;;;;-2.71;77.51;99815.23;1752051;82;21030;-41
2021/12/21 06:01:00;;;;;;;8.38;3.60;;;;;;;-2.65;77.43;99813.55;1732579;83;21033;-40
2021/12/21 06:03:26;;;;;;;8.78;3.67;;;;;;;-2.67;77.51;99815.22;1733401;82;20995;-41
2021/12/21 06:05:51;;;;;;;6.25;3.85;;;;;;;-2.67;77.42;99820.38;1750529;82;21499;-41
2021/12/21 06:08:21;;;;;;;7.97;3.87;;;;;;;-2.65;77.44;99827.71;1733273;83;21481;-40
2021/12/21 06:10:46;;;;;;;7.12;2.98;;;;;;;-2.69;76.99;99829.40;1750029;82;20967;-41
2021/12/21 06:13:29;;;;;;;8.78;3.40;;;;;;;-2.62;77.09;99833.74;1733436;82;21541;-41
2021/12/21 06:15:57;;;;;;;6.30;3.80;;;;;;;-2.65;76.98;99835.00;1729871;83;21070;-41
2021/12/21 06:26:17;;;;;;;8.75;4.15;;;;;;;-2.53;77.18;99826.48;1752020;82;20943;-40
2021/12/21 06:28:45;;;;;;;5.90;3.52;;;;;;;-2.48;77.13;99833.81;1732706;83;21388;-41
2021/12/21 06:31:12;;;;;;;8.40;4.20;;;;;;;-2.48;76.88;99836.39;1732519;83;21013;-41
2021/12/21 06:33:38;;;;;;;9.98;4.08;;;;;;;-2.54;76.49;99836.36;1732450;83;21029;-42
2021/12/21 06:36:07;;;;;;;7.85;4.45;;;;;;;-2.60;76.60;99835.90;1732719;83;21037;-42
2021/12/21 06:38:34;;;;;;;9.20;5.03;;;;;;;-2.48;76.81;99846.69;1732515;83;21485;-41
2021/12/21 06:41:00;;;;;;;7.00;4.20;;;;;;;-2.47;76.79;99850.12;1733497;82;21004;-41
2021/12/21 06:43:26;;;;;;;6.47;3.92;;;;;;;-2.52;76.86;99857.83;1734480;82;21491;-40
2021/12/21 06:46:05;;;;;;;8.58;4.62;;;;;;;-2.60;76.58;99869.77;1736407;82;21442;-39
2021/12/21 06:51:16;;;;;;;10.13;4.45;;;;;;;-2.59;77.07;99875.38;1764326;81;20972;-41
2021/12/21 06:53:39;;;;;;;9.23;4.60;;;;;;;-2.71;77.24;99873.15;1764208;81;21487;-40
2021/12/21 06:56:06;;;;;;;7.72;4.95;;;;;;;-2.66;77.49;99876.18;1764291;81;21029;-41
2021/12/21 06:58:33;;;;;;;9.88;5.67;;;;;;;-2.71;77.62;99878.30;1764399;81;20997;-41
2021/12/21 07:01:01;;;;;;;12.18;5.22;;;;;;;-2.70;77.57;99874.86;1764516;81;20974;-41
2021/12/21 07:03:27;;;;;;;7.70;4.25;;;;;;;-2.55;77.79;99874.53;1764388;81;20998;-42
2021/12/21 07:05:54;;;;;;;14.05;6.53;;;;;;;-2.59;77.45;99871.52;1764320;81;21459;-41
2021/12/21 07:08:26;;;;;;;7.83;4.93;;;;;;;-2.55;77.59;99873.25;1764526;81;20979;-40
2021/12/21 07:11:09;;;;;;;17.30;6.12;;;;;;;-2.48;77.47;99873.73;1764219;81;21480;-40
2021/12/21 07:18:52;;;;;;;13.35;8.43;;;;;;;-2.33;77.03;99887.13;1764304;81;20982;-40
2021/12/21 07:21:18;;;;;;;15.72;7.37;;;;;;;-2.19;76.90;99882.93;1764413;81;21002;-42
2021/12/21 07:23:44;;;;;;;10.80;6.17;;;;;;;-2.29;76.55;99876.02;1764345;81;21002;-40
2021/12/21 07:26:10;;;;;;;12.73;5.50;;;;;;;-2.28;76.75;99879.45;1764532;81;20994;-41
2021/12/21 07:28:36;;;;;;;11.83;5.67;;;;;;;-2.25;76.69;99865.30;1764429;81;21535;-41
2021/12/21 07:31:01;;;;;;;16.05;6.55;;;;;;;-2.19;77.10;99866.62;1764482;81;21058;-41
2021/12/21 07:33:28;;;;;;;14.58;6.78;;;;;;;-2.10;77.05;99873.55;1764497;81;20991;-40
2021/12/21 07:35:53;;;;;;;13.53;7.40;;;;;;;-2.00;76.85;99867.16;1764721;81;21520;-41
2021/12/21 07:38:19;;;;;;;11.90;5.83;;;;;;;-1.91;75.44;99863.77;1764553;81;20995;-41
2021/12/21 07:40:46;;;;;;;15.60;7.85;;;;;;;-1.91;75.44;99863.77;1764451;81;20982;-41
2021/12/21 07:43:11;;;;;;;10.68;6.45;;;;;;;-1.84;75.21;99866.78;1764261;81;21002;-41
2021/12/21 07:45:37;;;;;;;10.63;6.03;;;;;;;-1.77;75.75;99868.96;1764396;81;21046;-42
2021/12/21 07:48:04;;;;;;;22.05;13.15;;;;;;;-1.77;75.20;99880.56;1764505;81;20970;-40
2021/12/21 07:50:30;;;;;;;22.75;9.88;;;;;;;-1.69;75.23;99883.16;1764656;81;21005;-41
2021/12/21 07:52:57;;;;;;;12.00;7.03;;;;;;;-1.72;74.74;99891.77;1764383;81;21633;-42
2021/12/21 07:55:23;;;;;;;12.58;6.00;;;;;;;-1.71;74.53;99896.08;1764548;81;21499;-41
2021/12/21 07:57:50;;;;;;;14.58;6.85;;;;;;;-1.69;74.82;99902.10;1764668;81;21139;-41
2021/12/21 08:00:16;;;;;;;11.08;6.33;;;;;;;-1.68;74.55;99901.66;1764397;81;20994;-41
2021/12/21 08:02:43;;;;;;;14.13;7.40;;;;;;;-1.65;75.02;99903.83;1764459;81;21006;-41
2021/12/21 08:05:10;;;;;;;11.90;7.00;;;;;;;-1.74;74.87;99905.09;1764653;81;21575;-40
2021/12/21 08:07:45;;;;;;;18.67;7.85;;;;;;;-1.69;74.80;99898.23;1764540;81;21011;-41
2021/12/21 08:10:19;;;;;;;15.65;8.50;;;;;;;-1.62;75.17;99897.41;1762862;81;20979;-40
2021/12/21 08:12:35;;;;;;;16.15;8.30;;;;;;;-1.66;75.31;99905.96;1764282;81;20975;-42
2021/12/21 08:15:00;;;;;;;14.78;7.22;;;;;;;-1.69;75.03;99913.70;1764387;81;20991;-41
2021/12/21 08:17:26;;;;;;;14.83;7.25;;;;;;;-1.68;74.91;99908.97;1764439;81;21041;-41
2021/12/21 08:19:52;;;;;;;9.80;5.97;;;;;;;-1.84;74.69;99913.18;1764325;81;21022;-40
2021/12/21 08:22:18;;;;;;;10.00;5.75;;;;;;;-1.83;74.58;99915.36;1764413;81;21006;-41
2021/12/21 08:24:44;;;;;;;21.55;10.80;;;;;;;-1.80;74.89;99905.92;1764410;81;20978;-40
2021/12/21 08:27:10;;;;;;;11.45;6.15;;;;;;;-1.78;74.93;99910.66;1764413;81;20994;-40
2021/12/21 08:29:36;;;;;;;11.15;6.55;;;;;;;-1.75;74.72;99904.23;1764393;81;21033;-41
2021/12/21 08:32:02;;;;;;;12.18;5.60;;;;;;;-1.69;74.50;99910.24;1764585;81;21045;-41
2021/12/21 08:34:28;;;;;;;12.75;6.67;;;;;;;-1.65;74.86;99920.59;1764349;81;21002;-41
2021/12/21 08:36:54;;;;;;;14.93;7.28;;;;;;;-1.57;75.04;99920.18;1764428;81;21562;-41
2021/12/21 08:39:23;;;;;;;11.73;6.47;;;;;;;-1.67;74.89;99917.55;1764417;81;21582;-41
2021/12/21 08:41:51;;;;;;;12.50;5.87;;;;;;;-1.63;75.03;99923.19;1764011;81;20947;-41
2021/12/21 08:44:21;;;;;;;20.48;11.12;;;;;;;-1.66;74.87;99926.59;1757973;81;21022;-41
2021/12/21 08:46:43;;;;;;;14.85;7.58;;;;;;;-1.68;74.74;99927.02;1755206;81;20971;-41
2021/12/21 08:49:08;;;;;;;14.83;7.12;;;;;;;-1.81;74.57;99936.41;1755854;81;21010;-42
2021/12/21 08:51:34;;;;;;;15.65;7.85;;;;;;;-1.76;74.84;99926.98;1755817;82;21003;-42
2021/12/21 08:54:00;;;;;;;19.23;8.90;;;;;;;-1.65;75.21;99934.78;1755858;81;21006;-41
2021/12/21 08:56:26;;;;;;;14.47;7.28;;;;;;;-1.53;74.89;99929.23;1755859;81;20995;-42
2021/12/21 08:58:51;;;;;;;13.80;7.08;;;;;;;-1.46;74.89;99936.14;1755852;82;21797;-41
2021/12/21 09:01:17;;;;;;;13.88;7.35;;;;;;;-1.46;75.03;99938.72;1755826;81;21484;-41
2021/12/21 09:03:45;;;;;;;12.85;7.03;;;;;;;-1.55;74.77;99936.55;1755707;82;21535;-42
2021/12/21 09:06:11;;;;;;;13.10;6.75;;;;;;;-1.68;74.36;99940.34;1755990;81;21002;-41
2021/12/21 09:08:37;;;;;;;17.00;7.17;;;;;;;-1.57;75.01;99948.98;1755711;82;20990;-40
2021/12/21 09:11:05;;;;;;;13.70;7.47;;;;;;;-1.61;74.90;99942.10;1755771;82;21166;-41
2021/12/21 09:13:32;;;;;;;12.98;6.60;;;;;;;-1.59;74.88;99944.25;1755699;82;21607;-42
2021/12/21 09:15:58;;;;;;;20.02;8.85;;;;;;;-1.65;74.67;99947.67;1755851;82;21357;-42
2021/12/21 09:18:25;;;;;;;12.95;6.55;;;;;;;-1.58;74.42;99948.14;1755724;82;21038;-41
2021/12/21 09:20:51;;;;;;;14.83;7.40;;;;;;;-1.50;74.94;99958.48;1755994;82;21015;-41
2021/12/21 09:23:17;;;;;;;11.12;6.30;;;;;;;-1.59;73.86;99953.28;1755725;81;21035;-41
2021/12/21 09:25:44;;;;;;;11.85;6.42;;;;;;;-1.46;74.39;99945.17;1755999;82;21014;-42
2021/12/21 09:28:10;;;;;;;11.40;6.08;;;;;;;-1.42;73.94;99950.36;1755727;82;21047;-41
2021/12/21 09:30:36;;;;;;;15.00;6.65;;;;;;;-1.27;74.03;99946.11;1755797;82;21504;-41
2021/12/21 09:33:02;;;;;;;9.93;5.67;;;;;;;-1.31;73.48;99952.98;1755860;81;20999;-42
2021/12/21 09:35:28;;;;;;;16.00;6.55;;;;;;;-1.19;73.84;99961.18;1755727;82;21006;-41
2021/12/21 09:37:55;;;;;;;9.98;5.53;;;;;;;-1.31;73.20;99951.69;1755776;81;21042;-41
2021/12/21 09:40:25;;;;;;;14.43;6.83;;;;;;;-1.18;73.18;99953.45;1755871;82;20998;-42
2021/12/21 09:42:52;;;;;;;12.70;5.97;;;;;;;-1.26;73.21;99951.69;1755664;82;20967;-40
2021/12/21 09:45:18;;;;;;;14.18;6.55;;;;;;;-1.20;73.14;99960.33;1763856;81;21030;-41
2021/12/21 09:47:45;;;;;;;11.53;6.53;;;;;;;-1.23;72.52;99952.56;1764637;81;21460;-40
2021/12/21 09:50:14;;;;;;;14.35;6.47;;;;;;;-1.12;73.09;99955.62;1764395;81;21042;-41
2021/12/21 09:52:40;;;;;;;8.63;5.53;;;;;;;-1.12;71.66;99962.07;1764315;81;21046;-41
2021/12/21 09:55:11;;;;;;;9.85;5.58;;;;;;;-1.22;70.32;99957.29;1764367;81;21317;-41
2021/12/21 09:57:37;;;;;;;10.80;6.03;;;;;;;-1.15;70.84;99961.61;1764288;81;21179;-42
2021/12/21 10:00:12;;;;;;;11.05;6.08;;;;;;;-1.01;71.06;99965.09;1764677;81;20998;-42
2021/12/21 10:02:37;;;;;;;13.70;5.97;;;;;;;-0.98;70.31;99957.81;1764124;81;20999;-42
2021/12/21 10:05:09;;;;;;;11.65;5.90;;;;;;;-1.02;70.55;99957.34;1764449;81;21455;-43
2021/12/21 10:07:35;;;;;;;14.47;6.58;;;;;;;-1.02;70.79;99958.64;1733554;83;21488;-43
2021/12/21 10:10:06;;;;;;;10.80;5.85;;;;;;;-1.05;71.03;99956.06;1731995;83;20974;-41
2021/12/21 10:12:38;;;;;;;14.00;6.55;;;;;;;-1.09;70.99;99947.86;1759777;80;20996;-41
2021/12/21 10:15:12;;;;;;;16.40;7.30;;;;;;;-1.11;70.38;99949.58;1754031;80;21004;-42
2021/12/21 10:17:52;;;;;;;11.78;6.20;;;;;;;-0.99;69.93;99949.62;1754214;81;21020;-42
2021/12/21 10:20:35;;;;;;;12.47;5.92;;;;;;;-0.91;68.53;99946.64;1753911;82;20998;-42
2021/12/21 10:23:18;;;;;;;14.83;5.97;;;;;;;-0.70;70.63;99944.49;1731143;83;21047;-41
2021/12/21 10:25:51;;;;;;;23.25;8.70;;;;;;;-0.68;70.22;99944.06;1702081;84;21681;-42
2021/12/21 10:28:41;;;;;;;14.05;6.83;;;;;;;-0.82;69.85;99944.47;1702758;83;21086;-43
2021/12/21 10:31:24;;;;;;;27.45;8.90;;;;;;;-0.78;70.11;99944.49;1702519;83;21029;-42
2021/12/21 10:33:50;;;;;;;20.27;8.58;;;;;;;-0.68;70.20;99941.92;1697694;83;21466;-41
2021/12/21 10:36:17;;;;;;;17.50;5.67;;;;;;;-0.68;68.00;99941.92;1702561;84;21072;-41
2021/12/21 10:38:57;;;;;;;12.60;5.37;;;;;;;-0.63;67.48;99938.91;1703138;84;21029;-40
2021/12/21 10:41:39;;;;;;;10.60;5.90;;;;;;;-0.51;67.22;99941.51;1701753;83;21061;-41
2021/12/21 10:44:09;;;;;;;10.82;5.35;;;;;;;-0.48;67.17;99938.05;1698497;83;21531;-41
2021/12/21 10:46:43;;;;;;;12.45;6.03;;;;;;;-0.44;66.57;99930.72;1690186;83;21021;-41
2021/12/21 10:49:16;;;;;;;11.80;5.00;;;;;;;-0.42;67.09;99929.88;1689792;85;21021;-42
2021/12/21 10:52:05;;;;;;;10.75;5.08;;;;;;;-0.31;67.42;99932.45;1689706;84;21412;-42
2021/12/21 10:54:39;;;;;;;10.08;5.28;;;;;;;-0.24;67.40;99935.88;1689964;85;20975;-41
2021/12/21 10:57:15;;;;;;;8.13;5.00;;;;;;;-0.15;67.81;99929.84;1689397;85;21014;-41
2021/12/21 10:59:45;;;;;;;7.60;5.28;;;;;;;-0.22;67.61;99929.86;1690687;84;20978;-41
2021/12/21 11:02:21;;;;;;;11.30;5.75;;;;;;;-0.16;67.76;99923.82;1689911;83;21001;-41
2021/12/21 11:04:53;;;;;;;10.40;5.67;;;;;;;-0.22;67.12;99919.52;1690219;85;20970;-42
2021/12/21 11:07:38;;;;;;;11.33;6.03;;;;;;;-0.20;66.24;99919.09;1690157;83;21046;-40
2021/12/21 11:10:19;;;;;;;11.50;6.35;;;;;;;-0.13;66.72;99922.50;1689645;85;21049;-40
2021/12/21 11:12:52;;;;;;;14.28;6.15;;;;;;;0.01;67.01;99916.02;1690059;85;21010;-41
2021/12/21 11:15:29;;;;;;;13.22;6.42;;;;;;;0.10;67.48;99915.99;1690489;83;21001;-40
2021/12/21 11:17:56;;;;;;;16.62;10.45;;;;;;;0.15;66.14;99914.70;1705403;82;21472;-42
2021/12/21 11:20:22;;;;;;;;;;;;;;;0.19;66.01;99912.53;1747970;82;21007;-42
2021/12/21 11:22:47;;;;;;;13.10;5.95;;;;;;;0.25;65.62;99906.47;1745106;82;20183;-41
2021/12/21 11:25:15;;;;;;;13.60;6.85;;;;;;;0.28;64.59;99904.73;1745416;82;21074;-42
2021/12/21 11:27:43;;;;;;;10.68;5.87;;;;;;;0.35;64.08;99916.78;1710155;84;20995;-42
2021/12/21 11:30:20;;;;;;;9.55;6.35;;;;;;;0.35;63.15;99911.61;1711228;84;21441;-42
2021/12/21 11:32:50;;;;;;;9.38;6.17;;;;;;;0.41;62.67;99917.19;1740663;82;21575;-41
2021/12/21 11:37:50;;;;;;;14.05;6.83;;;;;;;0.52;63.22;99917.15;1740358;82;21003;-41
2021/12/21 11:40:21;;;;;;;11.73;6.53;;;;;;;0.55;63.77;99915.84;1739738;82;21079;-41
2021/12/21 11:43:28;;;;;;;16.40;7.05;;;;;;;0.49;63.78;99914.56;1707187;82;21635;-43
2021/12/21 11:46:02;;;;;;;18.27;7.12;;;;;;;0.18;62.91;99914.67;1732518;82;21468;-41
2021/12/21 11:49:01;;;;;;;14.73;7.65;;;;;;;0.22;62.88;99916.81;1714442;84;21050;-40
2021/12/21 11:51:28;;;;;;;15.75;7.92;;;;;;;0.15;62.95;99911.67;1746151;82;21472;-42
2021/12/21 11:53:56;;;;;;;16.15;9.05;;;;;;;0.15;64.15;99912.97;1743624;82;20951;-42
2021/12/21 11:56:26;;;;;;;12.45;7.10;;;;;;;0.18;64.77;99915.97;1733292;81;21002;-42
2021/12/21 11:58:56;;;;;;;10.90;5.65;;;;;;;0.21;64.84;99913.82;1733310;82;21068;-41
2021/12/21 12:01:29;;;;;;;11.00;5.50;;;;;;;0.15;63.07;99904.36;1732960;82;21526;-42
2021/12/21 12:04:00;;;;;;;11.18;6.00;;;;;;;0.16;63.63;99906.06;1733193;81;21050;-43
2021/12/21 12:06:29;;;;;;;11.43;6.05;;;;;;;0.18;64.56;99900.03;1737947;82;21014;-45
2021/12/21 12:09:03;;;;;;;11.12;6.00;;;;;;;0.15;63.71;99901.77;1719846;82;21109;-42
2021/12/21 12:11:36;;;;;;;13.18;6.47;;;;;;;0.19;64.95;99895.72;1746508;82;20994;-42
2021/12/21 12:14:13;;;;;;;9.85;5.55;;;;;;;0.08;64.21;99898.33;1745186;82;21069;-41
2021/12/21 12:16:52;;;;;;;13.72;5.92;;;;;;;0.08;64.39;99903.50;1746707;82;21035;-42
2021/12/21 12:19:27;;;;;;;27.37;8.25;;;;;;;-0.03;63.82;99907.41;1759201;81;21075;-41
2021/12/21 12:22:03;;;;;;;11.30;6.00;;;;;;;-0.26;64.04;99903.56;1764355;81;20997;-42
2021/12/21 12:24:40;;;;;;;14.33;8.63;;;;;;;-0.10;64.38;99905.70;1763485;81;21024;-41
2021/12/21 12:27:22;;;;;;;14.93;6.57;;;;;;;-0.12;64.67;99903.55;1764302;81;20997;-42
2021/12/21 12:29:56;;;;;;;13.50;6.70;;;;;;;-0.09;64.95;99907.84;1790255;80;20989;-43